createdAt,value
2018-09-17T14:23:23.756Z,2.70
2018-09-17T14:25:54.211Z,2.83
2018-09-17T14:28:24.688Z,3.10
2018-09-17T14:30:54.771Z,2.60
2018-09-17T14:33:29.349Z,3.10
2018-09-17T14:35:59.510Z,2.60
2018-09-17T14:38:29.139Z,3.00
2018-09-17T14:40:59.266Z,2.90
2018-09-17T14:43:29.558Z,2.60
2018-09-17T14:45:59.814Z,2.80
2018-09-17T14:48:30.537Z,3.02
2018-09-17T14:51:00.757Z,2.70
2018-09-17T14:53:31.178Z,2.70
2018-09-17T14:56:01.407Z,3.10
2018-09-17T14:58:31.825Z,3.10
2018-09-17T15:01:02.262Z,2.90
2018-09-17T15:03:32.000Z,3.10
2018-09-17T15:06:02.714Z,3.00
2018-09-17T15:08:33.169Z,3.08
2018-09-17T15:11:03.383Z,3.40
2018-09-17T15:13:33.852Z,3.08
2018-09-17T15:16:03.727Z,3.10
2018-09-17T15:18:34.212Z,2.98
2018-09-17T15:21:04.415Z,3.00
2018-09-17T15:23:34.184Z,3.62
2018-09-17T15:26:04.754Z,3.20
2018-09-17T15:28:35.137Z,3.20
2018-09-17T15:31:05.436Z,3.17
2018-09-17T15:33:35.802Z,3.10
2018-09-17T15:36:06.099Z,2.47
2018-09-17T15:38:36.567Z,2.98
2018-09-17T15:41:07.185Z,2.60
2018-09-17T15:43:37.559Z,2.80
2018-09-17T15:46:08.120Z,3.10
2018-09-17T15:48:38.521Z,2.72
2018-09-17T15:51:08.848Z,2.50
2018-09-17T15:53:39.458Z,2.85
2018-09-17T15:56:09.763Z,2.90
2018-09-17T15:58:40.140Z,2.72
2018-09-17T16:01:10.657Z,2.77
2018-09-17T16:03:41.127Z,3.10
2018-09-17T16:06:11.504Z,3.02
2018-09-17T16:08:41.955Z,2.90
2018-09-17T16:11:12.477Z,11.93
2018-09-17T16:13:42.593Z,3.90
2018-09-17T16:16:13.175Z,3.97
2018-09-17T16:18:43.624Z,5.40
2018-09-17T16:21:14.036Z,13.07
2018-09-17T16:23:43.926Z,63.50
2018-09-17T16:26:14.264Z,66.40
2018-09-17T16:28:44.409Z,41.70
2018-09-17T16:31:14.748Z,34.63
2018-09-17T16:33:44.923Z,13.13
2018-09-17T16:36:15.072Z,12.37
2018-09-17T16:38:45.164Z,12.60
2018-09-17T16:41:15.659Z,12.43
2018-09-17T16:43:45.841Z,13.57
2018-09-17T16:46:16.138Z,12.77
2018-09-17T16:48:46.549Z,13.60
2018-09-17T16:51:16.664Z,19.67
2018-09-17T16:53:46.785Z,17.33
2018-09-17T16:56:16.864Z,9.73
2018-09-17T16:58:47.135Z,8.40
2018-09-17T17:01:17.385Z,7.97
2018-09-17T17:03:47.931Z,12.77
2018-09-17T17:06:18.365Z,18.83
2018-09-17T17:08:48.742Z,17.30
2018-09-17T17:11:19.288Z,26.13
2018-09-17T17:13:49.691Z,28.83
2018-09-17T17:16:20.176Z,30.93
2018-09-17T17:18:50.611Z,32.37
2018-09-17T17:21:20.931Z,57.97
2018-09-17T17:23:51.288Z,48.83
2018-09-17T17:26:21.645Z,45.93
2018-09-17T17:28:52.152Z,39.90
2018-09-17T17:31:22.493Z,39.50
2018-09-17T17:33:52.992Z,42.50
2018-09-17T17:36:23.517Z,41.07
2018-09-17T17:38:53.993Z,40.40
2018-09-17T17:41:24.436Z,37.50
2018-09-17T17:43:55.833Z,38.80
2018-09-17T17:46:28.010Z,37.03
2018-09-17T17:48:58.429Z,34.57
2018-09-17T17:51:29.565Z,31.07
2018-09-17T17:54:01.681Z,28.97
2018-09-17T17:56:37.154Z,27.10
2018-09-17T17:59:07.449Z,21.83
2018-09-17T18:01:39.509Z,24.10
2018-09-17T18:04:11.653Z,20.03
2018-09-17T18:06:43.339Z,15.43
2018-09-17T18:09:13.871Z,19.80
2018-09-17T18:11:44.236Z,15.97
2018-09-17T18:14:15.399Z,17.33
2018-09-17T18:16:45.027Z,10.57
2018-09-17T18:19:15.316Z,10.40
2018-09-17T18:21:46.628Z,10.57
2018-09-17T18:24:25.564Z,11.40
2018-09-17T18:27:02.408Z,12.53
2018-09-17T18:29:32.560Z,10.07
2018-09-17T18:32:09.412Z,13.73
2018-09-17T18:34:44.570Z,14.17
2018-09-17T18:37:20.276Z,18.17
2018-09-17T18:39:56.151Z,16.63
2018-09-17T18:42:26.426Z,13.50
2018-09-17T18:44:57.880Z,13.10
2018-09-17T18:47:29.211Z,15.13
2018-09-17T18:50:00.443Z,15.07
2018-09-17T18:52:36.002Z,15.93
2018-09-17T18:55:06.494Z,15.50
2018-09-17T18:57:37.576Z,12.90
2018-09-17T19:00:14.467Z,11.63
2018-09-17T19:05:25.363Z,13.13
2018-09-17T19:07:55.503Z,12.30
2018-09-17T19:10:26.604Z,12.70
2018-09-17T19:13:00.331Z,13.20
2018-09-17T19:15:40.316Z,13.20
2018-09-17T19:18:15.597Z,15.03
2018-09-17T19:23:34.328Z,14.90
2018-09-17T19:28:44.607Z,14.13
2018-09-17T19:31:17.544Z,15.10
2018-09-17T19:33:47.454Z,16.27
2018-09-17T19:36:17.166Z,16.93
2018-09-17T19:38:52.200Z,16.10
2018-09-17T19:41:27.289Z,13.87
2018-09-17T19:43:57.681Z,14.87
2018-09-17T19:46:33.516Z,14.33
2018-09-17T19:49:03.352Z,15.03
2018-09-17T19:51:38.512Z,14.57
2018-09-17T19:54:09.943Z,15.73
2018-09-17T19:56:40.388Z,14.20
2018-09-17T19:59:15.792Z,14.53
2018-09-17T20:17:40.724Z,21.67
2018-09-17T20:20:10.899Z,20.20
2018-09-17T20:22:40.675Z,19.73
2018-09-17T20:25:10.956Z,19.80
2018-09-17T20:27:40.746Z,19.60
2018-09-17T20:30:11.004Z,22.30
2018-09-17T20:35:56.903Z,20.10
2018-09-17T20:38:39.013Z,20.80
2018-09-17T20:41:09.304Z,19.50
2018-09-17T20:43:39.578Z,19.03
2018-09-17T20:46:09.851Z,18.20
2018-09-17T20:48:40.266Z,17.33
2018-09-17T20:51:10.683Z,16.70
2018-09-17T20:53:41.130Z,16.23
2018-09-17T20:56:11.628Z,17.63
2018-09-17T20:58:42.452Z,15.53
2018-09-17T21:01:13.013Z,16.40
2018-09-17T21:03:43.307Z,17.27
2018-09-17T21:06:13.739Z,16.43
2018-09-17T21:08:44.308Z,16.97
2018-09-17T21:11:14.736Z,16.13
2018-09-17T21:13:45.048Z,16.23
2018-09-17T21:16:15.364Z,16.07
2018-09-17T21:18:45.444Z,15.80
2018-09-17T21:21:15.840Z,16.60
2018-09-17T21:23:45.575Z,16.20
2018-09-17T21:26:16.225Z,16.20
2018-09-17T21:28:46.783Z,16.67
2018-09-17T21:31:16.461Z,16.97
2018-09-17T21:33:46.810Z,17.07
2018-09-17T21:36:17.122Z,16.63
2018-09-17T21:38:47.692Z,17.23
2018-09-17T21:41:17.390Z,17.87
2018-09-17T21:43:47.779Z,17.43
2018-09-17T21:46:18.248Z,16.97
2018-09-17T21:48:48.788Z,17.47
2018-09-17T21:51:19.241Z,17.07
2018-09-17T21:53:49.513Z,17.77
2018-09-17T21:56:19.856Z,16.90
2018-09-17T21:58:49.447Z,16.87
2018-09-17T22:01:19.784Z,17.07
2018-09-17T22:03:49.764Z,17.67
2018-09-17T22:06:20.058Z,17.43
2018-09-17T22:08:50.336Z,16.80
2018-09-17T22:11:20.807Z,17.07
2018-09-17T22:13:51.141Z,16.83
2018-09-17T22:16:21.307Z,16.90
2018-09-17T22:18:51.835Z,17.63
2018-09-17T22:21:22.187Z,17.43
2018-09-17T22:23:52.512Z,16.73
2018-09-17T22:26:22.891Z,17.13
2018-09-17T22:28:53.395Z,16.53
2018-09-17T22:31:23.864Z,16.87
2018-09-17T22:33:54.235Z,17.70
2018-09-17T22:36:24.624Z,17.90
2018-09-17T22:38:55.105Z,17.80
2018-09-17T22:41:25.384Z,17.33
2018-09-17T22:43:55.428Z,17.73
2018-09-17T22:46:25.821Z,16.90
2018-09-17T22:48:55.668Z,17.13
2018-09-17T22:51:25.832Z,18.03
2018-09-17T22:53:56.154Z,16.30
2018-09-17T22:56:26.537Z,17.57
2018-09-17T22:58:56.909Z,17.77
2018-09-17T23:01:27.251Z,17.33
2018-09-17T23:03:57.475Z,17.37
2018-09-17T23:06:27.772Z,17.80
2018-09-17T23:08:58.176Z,17.77
2018-09-17T23:11:28.656Z,18.03
2018-09-17T23:13:58.266Z,17.43
2018-09-17T23:16:27.899Z,17.77
2018-09-17T23:18:58.088Z,18.00
2018-09-17T23:21:27.829Z,17.97
2018-09-17T23:23:58.043Z,16.47
2018-09-17T23:26:28.695Z,17.53
2018-09-17T23:28:59.088Z,17.10
2018-09-17T23:31:28.818Z,17.23
2018-09-17T23:33:59.248Z,17.70
2018-09-17T23:36:29.587Z,17.67
2018-09-17T23:38:59.977Z,19.57
2018-09-17T23:41:30.291Z,19.67
2018-09-17T23:44:00.082Z,19.73
2018-09-17T23:46:30.258Z,20.17
2018-09-17T23:49:00.804Z,19.67
2018-09-17T23:51:30.659Z,19.13
2018-09-17T23:54:01.426Z,18.87
2018-09-17T23:56:31.762Z,18.73
2018-09-17T23:59:02.404Z,18.90
